Time;durP1;ratioP1;P1;durP2;ratioP2;P2;SDS_P1;SDS_P2;PMS_P1;PMS_P2;Temp;Humidity;BMP_temperature;BMP_pressure;BME280_temperature;BME280_humidity;BME280_pressure;Samples;Min_cycle;Max_cycle;Signal;HPM_P1;HPM_P2
2021/11/26 00:01:11;;;;;;;35.43;23.50;;;;;;;3.15;81.65;99695.60;1657664;86;20950;-71
2021/11/26 00:03:38;;;;;;;37.48;24.70;;;;;;;3.16;81.65;99699.86;1673871;83;20986;-71
2021/11/26 00:06:05;;;;;;;35.33;24.50;;;;;;;3.18;81.68;99704.55;1689902;83;21403;-71
2021/11/26 00:08:31;;;;;;;34.60;24.02;;;;;;;3.19;81.68;99705.39;1700001;83;20918;-71
2021/11/26 00:10:57;;;;;;;36.95;24.47;;;;;;;3.21;81.70;99696.02;1678934;83;21017;-71
2021/11/26 00:13:30;;;;;;;;;;;;;;;3.21;81.66;99697.30;1682681;83;21536;-71
2021/11/26 00:15:57;;;;;;;37.75;23.18;;;;;;;3.21;81.73;99690.48;1699643;83;20612;-71
2021/11/26 00:18:20;;;;;;;37.58;26.33;;;;;;;3.22;81.70;99685.80;1679971;83;20978;-71
2021/11/26 00:20:48;;;;;;;37.65;25.30;;;;;;;3.22;81.70;99688.78;1679345;84;21036;-71
2021/11/26 00:23:16;;;;;;;40.90;25.72;;;;;;;3.21;81.73;99689.21;1676975;83;21573;-71
2021/11/26 00:25:45;;;;;;;41.35;25.82;;;;;;;3.22;81.75;99683.67;1680456;83;20961;-71
2021/11/26 00:28:11;;;;;;;37.70;25.30;;;;;;;3.23;81.73;99682.83;1674124;83;21020;-71
2021/11/26 00:30:37;;;;;;;37.05;24.63;;;;;;;3.22;81.68;99682.40;1677210;83;21138;-71
2021/11/26 00:33:05;;;;;;;34.92;24.60;;;;;;;3.21;81.73;99679.00;1697616;83;21049;-71
2021/11/26 00:35:31;;;;;;;39.27;25.70;;;;;;;3.22;81.78;99674.31;1702228;83;20953;-71
2021/11/26 00:37:57;;;;;;;39.42;24.80;;;;;;;3.25;81.77;99668.34;1700721;83;21098;-71
2021/11/26 00:40:24;;;;;;;35.58;24.35;;;;;;;3.24;81.78;99667.50;1701538;83;21343;-71
2021/11/26 00:42:51;;;;;;;37.00;23.27;;;;;;;3.23;81.77;99660.69;1682971;83;21064;-71
2021/11/26 00:45:18;;;;;;;33.30;22.93;;;;;;;3.24;81.77;99656.42;1674420;85;21021;-71
2021/11/26 00:47:45;;;;;;;36.90;23.07;;;;;;;3.24;81.77;99643.23;1701341;83;21108;-71
2021/11/26 00:50:15;;;;;;;34.30;21.93;;;;;;;3.23;81.80;99644.50;1677072;83;21084;-71
2021/11/26 00:52:41;;;;;;;34.85;22.65;;;;;;;3.23;81.79;99644.08;1687562;83;21078;-71
2021/11/26 00:55:09;;;;;;;36.45;23.90;;;;;;;3.23;81.77;99646.63;1682804;83;25252;-71
2021/11/26 00:57:35;;;;;;;36.45;23.98;;;;;;;3.20;81.74;99641.53;1701421;83;20949;-71
2021/11/26 01:00:06;;;;;;;33.92;23.05;;;;;;;3.18;81.76;99645.79;1703196;83;20918;-71
2021/11/26 01:02:33;;;;;;;35.50;23.57;;;;;;;3.17;81.79;99645.80;1679180;83;20954;-71
2021/11/26 01:04:59;;;;;;;35.15;22.45;;;;;;;3.16;81.83;99648.77;1680975;85;21036;-71
2021/11/26 01:07:25;;;;;;;38.80;25.60;;;;;;;3.16;81.81;99651.33;1684347;84;21118;-71
2021/11/26 01:09:52;;;;;;;37.75;23.57;;;;;;;3.16;81.83;99642.81;1680347;83;21044;-71
2021/11/26 01:12:20;;;;;;;37.28;24.00;;;;;;;3.14;81.87;99647.08;1680527;83;21048;-71
2021/11/26 01:14:47;;;;;;;;;;;;;;;3.13;81.85;99644.95;1680805;83;20952;-71
2021/11/26 01:17:13;;;;;;;;;;;;;;;3.13;81.89;99636.44;1693021;83;20526;-71
2021/11/26 01:19:39;;;;;;;32.88;21.25;;;;;;;3.12;81.92;99636.05;1702164;83;20131;-71
2021/11/26 01:22:06;;;;;;;34.60;22.62;;;;;;;3.13;81.92;99629.63;1677385;83;21109;-71
2021/11/26 01:24:32;;;;;;;32.33;22.52;;;;;;;3.13;81.92;99629.63;1675821;83;21076;-71
2021/11/26 01:27:01;;;;;;;32.40;21.85;;;;;;;3.12;81.86;99627.11;1701346;83;21670;-71
2021/11/26 01:29:27;;;;;;;34.48;22.35;;;;;;;3.11;81.86;99627.95;1676476;85;21056;-71
2021/11/26 01:31:55;;;;;;;34.80;22.87;;;;;;;3.08;81.87;99621.58;1680236;83;21115;-71
2021/11/26 01:34:22;;;;;;;34.30;22.58;;;;;;;3.06;81.88;99621.58;1683581;83;21154;-71
2021/11/26 01:36:50;;;;;;;27.48;20.35;;;;;;;3.02;81.85;99612.65;1679935;83;20898;-71
2021/11/26 01:39:16;;;;;;;37.75;22.37;;;;;;;3.00;81.86;99619.03;1696896;83;20918;-71
2021/11/26 01:41:43;;;;;;;33.25;21.90;;;;;;;2.98;81.88;99613.08;1669822;83;20966;-71
2021/11/26 01:44:13;;;;;;;32.67;21.90;;;;;;;2.94;81.88;99610.95;1662846;85;21029;-71
2021/11/26 01:46:43;;;;;;;;;;;;;;;2.93;81.95;99614.36;1677305;83;21065;-71
2021/11/26 01:49:11;;;;;;;35.68;21.97;;;;;;;2.90;81.98;99614.36;1677726;83;20208;-71
2021/11/26 01:51:40;;;;;;;31.90;21.33;;;;;;;2.91;81.98;99612.23;1678495;83;21488;-71
2021/11/26 01:54:08;;;;;;;31.50;22.40;;;;;;;2.92;81.98;99613.08;1699979;83;20917;-71
2021/11/26 01:56:35;;;;;;;31.85;21.82;;;;;;;2.91;82.02;99615.21;1680408;83;20988;-71
2021/11/26 01:59:02;;;;;;;32.38;21.10;;;;;;;2.91;82.09;99612.23;1677739;83;21334;-71
2021/11/26 02:01:29;;;;;;;31.42;22.10;;;;;;;2.92;82.03;99618.19;1678643;83;20992;-71
2021/11/26 02:03:55;;;;;;;32.25;21.48;;;;;;;2.92;82.06;99615.21;1688247;83;21551;-71
2021/11/26 02:06:21;;;;;;;31.97;21.25;;;;;;;2.94;82.04;99613.94;1663103;84;21117;-71
2021/11/26 02:08:51;;;;;;;36.40;22.98;;;;;;;2.94;82.08;99612.66;1660651;84;21344;-71
2021/11/26 02:11:17;;;;;;;31.15;20.55;;;;;;;2.95;82.07;99615.20;1649132;84;21160;-71
2021/11/26 02:13:44;;;;;;;30.55;22.00;;;;;;;2.95;82.06;99611.80;1664382;85;21049;-71
2021/11/26 02:16:10;;;;;;;35.00;21.57;;;;;;;2.96;82.07;99609.67;1671201;84;21331;-71
2021/11/26 02:18:37;;;;;;;31.30;21.05;;;;;;;2.96;82.06;99609.25;1662229;84;27346;-71
2021/11/26 02:21:04;;;;;;;30.85;20.45;;;;;;;2.97;82.10;99607.55;1647289;85;21387;-71
2021/11/26 02:23:30;;;;;;;32.10;20.62;;;;;;;2.97;82.09;99604.56;1643150;85;21423;-71
2021/11/26 02:25:57;;;;;;;30.88;20.57;;;;;;;2.98;82.12;99601.59;1654034;85;21105;-71
2021/11/26 02:28:24;;;;;;;32.60;20.88;;;;;;;2.98;82.07;99595.20;1652084;85;21172;-71
2021/11/26 02:30:51;;;;;;;37.00;21.70;;;;;;;2.98;82.07;99592.22;1641492;85;21422;-71
2021/11/26 02:33:21;;;;;;;30.90;21.57;;;;;;;2.99;82.10;99590.09;1640841;85;21432;-71
2021/11/26 02:35:51;;;;;;;32.50;21.15;;;;;;;2.97;82.06;99585.41;1618528;85;21139;-71
2021/11/26 02:38:17;;;;;;;35.83;21.00;;;;;;;2.97;82.09;99587.97;1643826;85;20978;-71
2021/11/26 02:40:45;;;;;;;26.30;19.23;;;;;;;2.99;82.11;99590.52;1644010;85;26452;-71
2021/11/26 02:43:13;;;;;;;26.80;19.62;;;;;;;2.99;82.13;99586.69;1645506;85;21083;-71
2021/11/26 02:45:41;;;;;;;25.00;18.30;;;;;;;3.01;82.14;99585.41;1667194;84;20942;-71
2021/11/26 02:48:08;;;;;;;26.25;19.32;;;;;;;3.01;82.09;99587.97;1664621;85;20934;-71
2021/11/26 02:50:35;;;;;;;31.02;21.07;;;;;;;3.02;82.13;99585.41;1658149;85;20982;-71
2021/11/26 02:53:04;;;;;;;23.70;18.12;;;;;;;3.02;82.14;99589.23;1624208;86;21283;-71
2021/11/26 02:55:33;;;;;;;31.00;19.82;;;;;;;3.03;82.17;99589.66;1662019;84;20986;-71
2021/11/26 02:58:01;;;;;;;26.95;19.30;;;;;;;3.05;82.15;99583.27;1659449;85;20931;-71
2021/11/26 03:00:30;;;;;;;31.52;18.90;;;;;;;3.05;82.16;99591.78;1644835;85;20966;-71
2021/11/26 03:02:57;;;;;;;30.45;19.42;;;;;;;3.06;82.15;99593.91;1653840;85;20935;-71
2021/11/26 03:05:25;;;;;;;27.85;19.30;;;;;;;3.07;82.17;99591.78;1676798;83;21030;-71
2021/11/26 03:07:51;;;;;;;28.05;19.17;;;;;;;3.07;82.19;99582.42;1686510;83;20941;-71
2021/11/26 03:10:21;;;;;;;27.98;18.92;;;;;;;3.09;82.20;99577.30;1697464;83;21039;-71
2021/11/26 03:12:57;;;;;;;30.70;19.42;;;;;;;3.09;82.22;99578.16;1706278;83;20957;-71
2021/11/26 03:15:24;;;;;;;27.20;18.45;;;;;;;3.11;82.23;99576.45;1683658;83;21117;-71
2021/11/26 03:17:51;;;;;;;24.57;17.90;;;;;;;3.12;82.21;99573.01;1704115;82;21473;-71
2021/11/26 03:20:18;;;;;;;29.85;19.60;;;;;;;3.14;82.24;99571.73;1699982;82;20955;-71
2021/11/26 03:22:45;;;;;;;;;;;;;;;3.14;82.20;99567.90;1687047;83;21066;-71
2021/11/26 03:25:20;;;;;;;34.33;19.77;;;;;;;3.13;82.25;99563.64;1696456;83;20477;-71
2021/11/26 03:27:47;;;;;;;25.82;19.35;;;;;;;3.13;82.20;99564.92;1685048;83;21022;-71
2021/11/26 03:30:16;;;;;;;;;;;;;;;3.12;82.21;99563.25;1703661;83;20980;-71
2021/11/26 03:32:44;;;;;;;28.35;18.87;;;;;;;3.11;82.27;99561.13;1684204;82;20536;-71
2021/11/26 03:35:11;;;;;;;28.47;18.80;;;;;;;3.11;82.24;99565.39;1694068;83;21076;-71
2021/11/26 03:37:37;;;;;;;29.90;19.40;;;;;;;3.11;82.25;99563.68;1685676;83;20946;-71
2021/11/26 03:40:07;;;;;;;25.88;18.75;;;;;;;3.11;82.23;99567.94;1685493;83;21309;-71
2021/11/26 03:42:33;;;;;;;29.10;18.70;;;;;;;3.10;82.26;99565.81;1707550;83;21030;-71
2021/11/26 03:44:59;;;;;;;27.25;18.10;;;;;;;3.09;82.29;99561.98;1719306;83;21052;-71
2021/11/26 03:47:26;;;;;;;27.70;19.02;;;;;;;3.10;82.29;99560.70;1706358;83;21064;-71
2021/11/26 03:49:53;;;;;;;26.23;16.75;;;;;;;3.10;82.31;99564.53;1705498;83;21101;-71
2021/11/26 03:52:20;;;;;;;29.18;18.15;;;;;;;3.10;82.31;99556.88;1678594;83;22227;-71
2021/11/26 03:54:46;;;;;;;32.55;18.42;;;;;;;3.11;82.32;99560.28;1685009;83;21074;-71
2021/11/26 03:57:13;;;;;;;27.55;17.70;;;;;;;3.11;82.31;99567.51;1685358;83;21085;-71
2021/11/26 03:59:39;;;;;;;23.85;16.82;;;;;;;3.11;82.33;99564.95;1695994;83;21126;-71
2021/11/26 04:02:08;;;;;;;24.67;17.48;;;;;;;3.15;82.36;99564.48;1692517;83;21486;-71
2021/11/26 04:04:35;;;;;;;26.80;18.20;;;;;;;3.15;82.36;99555.55;1671494;83;21116;-71
2021/11/26 04:07:01;;;;;;;29.32;18.48;;;;;;;3.16;82.33;99548.31;1678156;83;20891;-71
2021/11/26 04:09:27;;;;;;;26.15;17.67;;;;;;;3.17;82.35;99552.56;1675139;83;21781;-71
2021/11/26 04:11:54;;;;;;;26.30;16.55;;;;;;;3.17;82.35;99550.01;1677990;83;20943;-71
2021/11/26 04:14:20;;;;;;;26.60;17.90;;;;;;;3.18;82.33;99550.44;1682439;83;27964;-71
2021/11/26 04:16:48;;;;;;;26.80;18.50;;;;;;;3.18;82.33;99558.95;1680566;83;20899;-71
2021/11/26 04:19:18;;;;;;;24.37;16.95;;;;;;;3.17;82.34;99548.30;1680394;83;21060;-71
2021/11/26 04:21:44;;;;;;;23.52;16.35;;;;;;;3.17;82.37;99539.36;1678757;83;21043;-71
2021/11/26 04:24:11;;;;;;;24.57;16.80;;;;;;;3.19;82.37;99541.91;1680456;83;21027;-71
2021/11/26 04:26:40;;;;;;;22.00;16.57;;;;;;;3.19;82.37;99541.48;1691099;83;21077;-71
2021/11/26 04:29:07;;;;;;;22.20;16.17;;;;;;;3.19;82.38;99538.94;1687498;83;20999;-71
2021/11/26 04:31:34;;;;;;;27.17;17.67;;;;;;;3.20;82.36;99539.78;1674450;83;21108;-71
2021/11/26 04:34:00;;;;;;;24.52;16.37;;;;;;;3.20;82.39;99538.08;1684183;83;21563;-71
2021/11/26 04:36:27;;;;;;;23.70;16.55;;;;;;;3.20;82.39;99539.78;1695498;83;21056;-71
2021/11/26 04:38:53;;;;;;;22.65;16.55;;;;;;;3.20;82.39;99537.23;1678142;83;21041;-71
2021/11/26 04:41:19;;;;;;;24.25;15.35;;;;;;;3.21;82.41;99541.05;1676286;83;21141;-71
2021/11/26 04:43:46;;;;;;;19.82;16.25;;;;;;;3.22;82.41;99539.34;1679088;83;21103;-71
2021/11/26 04:46:12;;;;;;;25.05;15.72;;;;;;;3.22;82.40;99535.52;1692027;83;21037;-71
2021/11/26 04:48:38;;;;;;;20.40;15.23;;;;;;;3.21;82.41;99533.81;1689504;83;21088;-71
2021/11/26 04:51:05;;;;;;;24.43;15.80;;;;;;;3.22;82.43;99533.81;1688259;83;21607;-71
2021/11/26 04:53:31;;;;;;;21.17;15.53;;;;;;;3.22;82.42;99532.97;1693169;83;21029;-71
2021/11/26 04:55:59;;;;;;;22.52;15.38;;;;;;;3.22;82.45;99531.26;1711391;83;21041;-71
2021/11/26 04:58:25;;;;;;;27.37;15.90;;;;;;;3.22;82.44;99521.47;1694224;83;21045;-71
2021/11/26 05:00:52;;;;;;;22.35;15.53;;;;;;;3.23;82.45;99525.30;1684594;83;21040;-71
2021/11/26 05:03:18;;;;;;;20.92;15.05;;;;;;;3.24;82.45;99521.88;1622569;83;5001071;-71
2021/11/26 05:05:45;;;;;;;22.13;15.55;;;;;;;3.24;82.45;99523.59;1705653;83;21035;-71
2021/11/26 05:08:16;;;;;;;25.37;14.65;;;;;;;3.26;82.46;99523.16;1699001;82;21060;-71
2021/11/26 05:10:41;;;;;;;25.80;17.00;;;;;;;3.25;82.42;99513.80;1702072;82;21055;-71
2021/11/26 05:13:09;;;;;;;28.17;17.52;;;;;;;3.25;82.44;99510.81;1709480;82;21468;-69
2021/11/26 05:15:36;;;;;;;25.90;16.55;;;;;;;3.24;82.40;99512.09;1668586;84;21513;-71
2021/11/26 05:18:04;;;;;;;;;;;;;;;3.23;82.44;99513.80;1670297;84;21165;-71
2021/11/26 05:20:33;;;;;;;25.45;15.38;;;;;;;3.22;82.43;99513.37;1658883;84;20089;-71
2021/11/26 05:22:59;;;;;;;30.20;17.23;;;;;;;3.19;82.43;99510.84;1712473;82;21436;-71
2021/11/26 05:25:26;;;;;;;26.35;17.05;;;;;;;3.19;82.45;99509.98;1697149;82;20877;-71
2021/11/26 05:27:52;;;;;;;27.82;17.52;;;;;;;3.17;82.43;99509.14;1695474;82;20886;-71
2021/11/26 05:30:20;;;;;;;29.55;18.82;;;;;;;3.14;82.44;99499.79;1702135;82;20925;-71
2021/11/26 05:32:50;;;;;;;25.40;16.70;;;;;;;3.11;82.43;99497.28;1701359;82;21361;-71
2021/11/26 05:35:25;;;;;;;24.82;16.87;;;;;;;3.09;82.49;99493.88;1703203;82;20964;-71
2021/11/26 05:37:51;;;;;;;24.45;17.23;;;;;;;3.08;82.46;99497.72;1703682;82;21409;-71
2021/11/26 05:40:19;;;;;;;28.75;16.95;;;;;;;3.06;82.49;99500.70;1670690;84;20961;-71
2021/11/26 05:42:46;;;;;;;23.57;17.15;;;;;;;3.04;82.48;99498.58;1639181;85;20964;-71
2021/11/26 05:45:14;;;;;;;24.02;17.42;;;;;;;3.00;82.49;99499.02;1670595;84;20973;-71
2021/11/26 05:47:41;;;;;;;23.92;16.23;;;;;;;2.98;82.51;99500.30;1670106;85;21466;-71
2021/11/26 05:50:12;;;;;;;26.27;17.45;;;;;;;2.98;82.52;99501.58;1669919;84;20977;-71
2021/11/26 05:52:38;;;;;;;30.57;18.10;;;;;;;2.97;82.55;99504.98;1667972;84;20889;-71
2021/11/26 05:55:09;;;;;;;25.55;18.50;;;;;;;2.97;82.59;99506.27;1641742;87;20958;-71
2021/11/26 05:57:36;;;;;;;22.67;17.05;;;;;;;2.98;82.59;99508.39;1674855;84;20935;-71
2021/11/26 06:00:05;;;;;;;;;;;;;;;3.00;82.63;99507.95;1670481;84;21376;-71
2021/11/26 06:02:32;;;;;;;27.07;16.95;;;;;;;3.01;82.61;99504.97;1669356;84;20172;-71
2021/11/26 06:04:58;;;;;;;32.42;18.20;;;;;;;3.00;82.61;99505.41;1685399;84;21087;-71
2021/11/26 06:07:24;;;;;;;27.42;18.15;;;;;;;3.02;82.64;99511.36;1649214;84;21683;-71
2021/11/26 06:09:51;;;;;;;22.73;16.35;;;;;;;3.02;82.62;99511.78;1646132;85;21572;-71
2021/11/26 06:12:18;;;;;;;29.32;17.85;;;;;;;3.02;82.64;99511.36;1666009;85;21569;-71
2021/11/26 06:14:44;;;;;;;25.50;17.45;;;;;;;3.03;82.65;99505.82;1652595;85;21529;-71
2021/11/26 06:17:10;;;;;;;24.45;16.25;;;;;;;3.04;82.66;99504.97;1652735;85;21604;-71
2021/11/26 06:19:36;;;;;;;24.12;17.55;;;;;;;3.05;82.66;99506.66;1643374;85;21069;-71
2021/11/26 06:22:03;;;;;;;26.57;18.67;;;;;;;3.06;82.67;99506.66;1644416;85;21715;-71
2021/11/26 06:24:32;;;;;;;23.83;16.40;;;;;;;3.06;82.68;99505.38;1647034;85;21355;-71
2021/11/26 06:26:59;;;;;;;24.00;16.45;;;;;;;3.07;82.64;99505.80;1618350;86;21692;-71
2021/11/26 06:29:25;;;;;;;27.73;16.65;;;;;;;3.06;82.63;99502.83;1617180;86;21661;-71
2021/11/26 06:31:52;;;;;;;30.85;17.77;;;;;;;3.07;82.66;99507.08;1647058;86;21144;-71
2021/11/26 06:34:18;;;;;;;22.35;16.57;;;;;;;3.07;82.64;99507.08;1646539;86;21631;-71
2021/11/26 06:36:44;;;;;;;30.20;17.90;;;;;;;3.08;82.64;99513.04;1646530;85;21017;-73
2021/11/26 06:39:11;;;;;;;29.77;17.77;;;;;;;3.07;82.66;99506.23;1639229;85;21085;-69
2021/11/26 06:41:37;;;;;;;23.90;16.15;;;;;;;3.06;82.66;99507.94;1646810;85;21105;-69
2021/11/26 06:44:09;;;;;;;28.77;18.60;;;;;;;3.06;82.62;99506.66;1655871;85;21096;-69
2021/11/26 06:46:36;;;;;;;25.95;17.10;;;;;;;3.06;82.62;99510.48;1655394;85;21418;-69
2021/11/26 06:49:03;;;;;;;27.93;17.65;;;;;;;3.04;82.66;99504.97;1618596;85;21522;-69
2021/11/26 06:51:30;;;;;;;27.67;17.07;;;;;;;3.05;82.66;99510.50;1647984;85;21129;-69
2021/11/26 06:53:57;;;;;;;27.60;19.35;;;;;;;3.06;82.71;99514.32;1667946;85;26496;-69
2021/11/26 06:56:24;;;;;;;29.75;17.67;;;;;;;3.05;82.70;99508.79;1658472;85;21061;-69
2021/11/26 06:58:52;;;;;;;;;;;;;;;3.08;82.71;99505.37;1647256;85;21033;-69
2021/11/26 07:01:18;;;;;;;34.60;18.90;;;;;;;3.07;82.74;99500.70;1652309;85;20124;-69
2021/11/26 07:03:45;;;;;;;34.43;18.98;;;;;;;3.07;82.71;99497.30;1651103;85;20942;-69
2021/11/26 07:06:11;;;;;;;32.20;19.20;;;;;;;3.05;82.70;99498.58;1653190;85;21133;-69
2021/11/26 07:08:37;;;;;;;32.88;19.95;;;;;;;3.04;82.66;99498.16;1637677;86;21464;-69
2021/11/26 07:11:04;;;;;;;28.87;19.50;;;;;;;3.00;82.63;99493.91;1635495;85;21007;-69
2021/11/26 07:13:31;;;;;;;29.37;17.67;;;;;;;2.98;82.68;99492.64;1637526;86;21419;-69
2021/11/26 07:15:57;;;;;;;28.38;18.00;;;;;;;2.97;82.63;99491.37;1645380;85;20931;-69
2021/11/26 07:18:24;;;;;;;28.17;18.20;;;;;;;2.94;82.66;99490.09;1636792;85;21590;-69
2021/11/26 07:20:51;;;;;;;30.77;19.37;;;;;;;2.93;82.70;99486.70;1619154;87;20947;-69
2021/11/26 07:23:17;;;;;;;28.35;18.70;;;;;;;2.92;82.69;99482.87;1621680;86;20923;-69
2021/11/26 07:25:44;;;;;;;30.92;18.62;;;;;;;2.90;82.69;99478.20;1638170;86;27397;-69
2021/11/26 07:28:10;;;;;;;30.90;18.62;;;;;;;2.89;82.71;99481.61;1668227;85;20879;-69
2021/11/26 07:30:39;;;;;;;34.98;20.10;;;;;;;2.89;82.69;99477.77;1667332;85;20973;-69
2021/11/26 07:33:05;;;;;;;38.53;20.75;;;;;;;2.87;82.72;99481.61;1667163;84;21415;-69
2021/11/26 07:35:32;;;;;;;32.33;19.95;;;;;;;2.86;82.71;99476.08;1664180;84;20971;-69
2021/11/26 07:37:58;;;;;;;;;;;;;;;2.88;82.73;99477.35;1666082;85;20916;-69
2021/11/26 07:40:24;;;;;;;34.35;20.32;;;;;;;2.86;82.70;99473.95;1668127;84;20738;-71
2021/11/26 07:42:56;;;;;;;42.85;22.62;;;;;;;2.83;82.66;99473.97;1664642;85;21412;-71
2021/11/26 07:45:24;;;;;;;33.73;21.40;;;;;;;2.80;82.62;99470.14;1667714;85;21547;-71
2021/11/26 07:47:52;;;;;;;36.83;22.48;;;;;;;2.75;82.66;99471.44;1670281;84;20913;-71
2021/11/26 07:50:19;;;;;;;34.05;20.57;;;;;;;2.71;82.66;99472.30;1664915;84;20910;-71
2021/11/26 07:52:46;;;;;;;33.05;20.75;;;;;;;2.69;82.69;99468.90;1668462;84;21459;-69
2021/11/26 07:55:13;;;;;;;35.25;22.15;;;;;;;2.67;82.73;99465.50;1674853;84;20898;-69
2021/11/26 07:57:41;;;;;;;34.18;21.40;;;;;;;2.65;82.72;99467.20;1665135;83;20950;-69
2021/11/26 08:00:09;;;;;;;40.10;22.75;;;;;;;2.63;82.76;99463.80;1665222;84;20927;-69
2021/11/26 08:02:36;;;;;;;36.73;24.05;;;;;;;2.60;82.74;99460.84;1657021;85;20967;-69
2021/11/26 08:05:03;;;;;;;38.65;22.48;;;;;;;2.57;82.79;99455.77;1669381;85;20914;-69
2021/11/26 08:07:30;;;;;;;34.63;22.50;;;;;;;2.58;82.82;99460.45;1674710;83;20999;-69
2021/11/26 08:09:56;;;;;;;;;;;;;;;2.58;82.82;99464.28;1679001;83;20898;-69
2021/11/26 08:12:22;;;;;;;35.52;20.60;;;;;;;2.58;82.85;99461.73;1679675;85;21516;-69
2021/11/26 08:14:51;;;;;;;39.10;22.07;;;;;;;2.59;82.83;99459.59;1680828;85;20901;-69
2021/11/26 08:17:17;;;;;;;38.85;22.65;;;;;;;2.59;82.83;99461.72;1677202;85;21419;-69
2021/11/26 08:19:43;;;;;;;33.75;22.07;;;;;;;2.61;82.87;99468.06;1638202;85;23559;-69
2021/11/26 08:22:12;;;;;;;40.17;22.15;;;;;;;2.63;82.94;99467.20;1680180;85;20933;-69
2021/11/26 08:24:39;;;;;;;39.10;23.00;;;;;;;2.67;82.93;99466.77;1678143;83;21510;-69
2021/11/26 08:27:05;;;;;;;33.40;21.10;;;;;;;2.70;82.94;99464.64;1674419;83;20934;-69
2021/11/26 08:29:35;;;;;;;33.60;20.20;;;;;;;2.74;82.99;99460.80;1676554;85;20935;-69
2021/11/26 08:32:01;;;;;;;35.00;21.23;;;;;;;2.77;82.98;99459.52;1686408;83;20894;-69
2021/11/26 08:34:28;;;;;;;34.33;20.95;;;;;;;2.72;82.99;99441.24;1681852;83;20913;-69
2021/11/26 08:36:54;;;;;;;33.02;20.70;;;;;;;2.84;82.97;99456.52;1676926;83;20978;-69
2021/11/26 08:39:20;;;;;;;32.33;20.05;;;;;;;2.88;83.00;99459.48;1677327;83;20914;-69
2021/11/26 08:41:47;;;;;;;32.35;21.23;;;;;;;2.90;82.98;99458.63;1678381;84;20917;-69
2021/11/26 08:44:19;;;;;;;30.95;20.08;;;;;;;2.93;82.96;99464.14;1688927;83;20863;-69
2021/11/26 08:46:45;;;;;;;34.35;20.68;;;;;;;2.94;82.93;99469.25;1677441;83;20914;-69
2021/11/26 08:49:13;;;;;;;39.25;22.70;;;;;;;2.96;82.92;99464.14;1684260;83;20926;-69
2021/11/26 08:51:43;;;;;;;38.92;22.45;;;;;;;2.97;82.93;99464.55;1682181;85;21422;-69
2021/11/26 08:54:09;;;;;;;36.55;22.58;;;;;;;2.98;82.94;99458.59;1684385;83;20871;-69
2021/11/26 08:56:36;;;;;;;43.65;24.63;;;;;;;2.99;82.93;99456.03;1682371;83;20906;-69
2021/11/26 08:59:03;;;;;;;42.85;25.62;;;;;;;3.00;82.91;99451.78;1660760;84;21026;-69
2021/11/26 09:01:31;;;;;;;42.62;24.80;;;;;;;3.00;82.90;99463.27;1688867;83;26768;-69
2021/11/26 09:03:58;;;;;;;38.60;23.00;;;;;;;3.01;82.96;99462.84;1675444;85;20901;-70
2021/11/26 09:06:34;;;;;;;43.45;24.90;;;;;;;3.05;83.00;99469.20;1680624;84;20917;-69
2021/11/26 09:09:00;;;;;;;44.53;23.92;;;;;;;3.09;83.03;99464.94;1682092;83;28063;-69
2021/11/26 09:11:26;;;;;;;44.77;24.07;;;;;;;3.13;83.02;99462.33;1682034;83;20901;-69
2021/11/26 09:13:52;;;;;;;39.33;25.17;;;;;;;3.17;83.03;99460.61;1681793;83;20881;-69
2021/11/26 09:16:19;;;;;;;37.50;23.20;;;;;;;3.22;83.05;99461.44;1681002;83;20933;-69
2021/11/26 09:18:45;;;;;;;33.45;21.97;;;;;;;3.27;83.06;99458.44;1683946;83;20909;-69
2021/11/26 09:21:12;;;;;;;33.13;21.55;;;;;;;3.32;83.10;99466.50;1684966;83;20941;-69
2021/11/26 09:23:39;;;;;;;36.40;22.10;;;;;;;3.40;83.11;99460.50;1681584;83;20913;-69
2021/11/26 09:28:31;;;;;;;38.00;22.53;;;;;;;3.57;83.15;99457.42;1861387;76;21963;-69
2021/11/26 09:30:59;;;;;;;30.65;21.00;;;;;;;3.60;83.15;99445.47;1823683;77;21005;-69
2021/11/26 09:33:35;;;;;;;33.85;21.80;;;;;;;3.69;83.20;99447.08;1824712;77;20917;-70
2021/11/26 09:36:08;;;;;;;30.35;21.85;;;;;;;3.78;83.17;99434.66;1825463;77;20854;-69
2021/11/26 09:38:36;;;;;;;34.40;20.88;;;;;;;3.86;83.12;99432.90;1824359;77;20926;-69
2021/11/26 09:41:06;;;;;;;35.20;22.30;;;;;;;3.90;83.09;99437.98;1827198;77;20848;-69
2021/11/26 09:43:34;;;;;;;34.90;21.62;;;;;;;3.96;83.05;99439.64;1835247;77;20882;-69
2021/11/26 09:46:03;;;;;;;39.48;22.02;;;;;;;3.98;83.02;99431.09;1836569;77;20870;-67
2021/11/26 09:48:29;;;;;;;31.27;20.43;;;;;;;4.01;82.98;99428.94;1828312;77;21763;-67
2021/11/26 09:50:56;;;;;;;;;;;;;;;4.07;83.04;99422.49;1836888;77;20850;-68
2021/11/26 09:53:26;;;;;;;36.23;20.50;;;;;;;4.13;83.08;99419.88;1796589;77;20239;-68
2021/11/26 09:56:05;;;;;;;37.42;21.45;;;;;;;4.20;83.15;99415.53;1787781;78;20933;-68
2021/11/26 09:58:33;;;;;;;36.38;21.25;;;;;;;4.25;83.06;99418.45;1727134;80;20921;-68
2021/11/26 10:01:06;;;;;;;37.73;20.10;;;;;;;4.30;83.03;99409.46;1729725;82;20894;-68
2021/11/26 10:03:51;;;;;;;35.52;22.00;;;;;;;4.33;83.00;99401.75;1728484;81;21348;-68
2021/11/26 10:06:36;;;;;;;46.98;21.77;;;;;;;4.37;83.00;99397.02;1743338;80;20869;-67
2021/11/26 10:09:10;;;;;;;33.08;20.52;;;;;;;4.41;82.97;99393.56;1752800;80;20907;-68
2021/11/26 10:11:55;;;;;;;40.67;21.85;;;;;;;4.42;82.91;99391.86;1748626;80;20897;-67
2021/11/26 10:14:35;;;;;;;30.60;19.12;;;;;;;4.45;82.95;99387.98;1742194;81;20913;-68
2021/11/26 10:17:14;;;;;;;39.65;21.65;;;;;;;4.50;83.03;99380.67;1741135;81;20902;-68
2021/11/26 10:19:55;;;;;;;37.78;21.20;;;;;;;4.61;83.05;99379.27;1738397;81;21075;-67
2021/11/26 10:22:38;;;;;;;40.00;20.02;;;;;;;4.70;83.09;99367.61;1741855;81;21450;-68
2021/11/26 10:25:18;;;;;;;33.60;20.32;;;;;;;4.80;83.08;99360.23;1729365;82;21356;-68
2021/11/26 10:27:57;;;;;;;33.67;19.02;;;;;;;4.89;83.00;99356.70;1752045;81;20940;-68
2021/11/26 10:30:32;;;;;;;30.48;18.40;;;;;;;4.95;82.97;99348.94;1756962;79;20937;-68
2021/11/26 10:33:25;;;;;;;29.37;15.80;;;;;;;5.02;82.93;99349.27;1745553;79;20936;-68
2021/11/26 10:35:55;;;;;;;24.80;15.38;;;;;;;5.05;82.80;99347.94;1729780;82;20954;-73
2021/11/26 10:38:29;;;;;;;27.67;15.78;;;;;;;5.08;82.78;99345.77;1711387;81;708057;-68
2021/11/26 10:41:00;;;;;;;25.32;15.05;;;;;;;5.08;82.66;99353.02;1721481;81;20893;-68
2021/11/26 10:43:53;;;;;;;28.67;15.50;;;;;;;5.08;82.70;99341.50;1713625;83;20977;-68
2021/11/26 11:00:04;;;;;;;27.00;16.23;;;;;;;5.19;82.70;99315.72;1714103;82;20956;-68
2021/11/26 11:02:35;;;;;;;27.90;14.90;;;;;;;5.21;82.65;99311.38;1707865;82;20876;-67
2021/11/26 11:05:04;;;;;;;24.75;15.35;;;;;;;5.23;82.66;99309.64;1699982;82;20912;-68
2021/11/26 11:07:43;;;;;;;20.50;14.45;;;;;;;5.23;82.62;99308.36;1692776;82;21416;-68
2021/11/26 11:10:17;;;;;;;24.35;15.63;;;;;;;5.25;82.65;99312.59;1702705;82;20932;-67
2021/11/26 11:12:43;;;;;;;23.12;15.63;;;;;;;5.26;82.60;99316.00;1702847;82;20923;-68
2021/11/26 11:15:11;;;;;;;23.10;15.50;;;;;;;5.25;82.57;99311.31;1708522;82;20876;-67
2021/11/26 11:17:38;;;;;;;22.95;13.78;;;;;;;5.27;82.59;99307.45;1709330;82;21038;-68
2021/11/26 11:20:16;;;;;;;24.50;14.33;;;;;;;5.25;82.53;99304.06;1702493;82;20968;-68
2021/11/26 11:22:41;;;;;;;24.23;14.87;;;;;;;5.23;82.55;99301.52;1709399;82;20948;-68
2021/11/26 11:25:21;;;;;;;26.75;16.20;;;;;;;5.23;82.49;99298.95;1706320;82;20901;-67
2021/11/26 11:27:45;;;;;;;26.70;16.30;;;;;;;5.20;82.55;99304.13;1703793;82;20916;-67
2021/11/26 11:30:12;;;;;;;24.82;15.93;;;;;;;5.17;82.56;99297.80;1705667;82;20901;-67
2021/11/26 11:32:39;;;;;;;30.32;16.52;;;;;;;5.17;82.53;99304.21;1698275;82;20936;-67
2021/11/26 11:35:07;;;;;;;;;;;;;;;5.15;82.54;99296.13;1705277;82;20956;-67
2021/11/26 11:37:35;;;;;;;20.40;13.98;;;;;;;5.12;82.41;99297.46;1703071;82;20136;-67
2021/11/26 11:40:06;;;;;;;25.65;15.05;;;;;;;5.12;82.51;99291.91;1699537;82;20981;-67
2021/11/26 11:42:42;;;;;;;21.25;14.23;;;;;;;5.09;82.47;99291.95;1702385;82;20897;-67
2021/11/26 11:45:18;;;;;;;20.05;14.23;;;;;;;5.08;82.52;99283.84;1701974;82;20960;-67
2021/11/26 11:47:55;;;;;;;20.00;14.00;;;;;;;5.09;82.48;99274.45;1677647;84;20960;-67
2021/11/26 11:50:25;;;;;;;24.95;15.75;;;;;;;5.09;82.49;99274.45;1700919;82;20944;-67